Hoppa till innehåll

METAR väder och rapporter - EDDW

Nedan listas information från vald flygplats. Andra METARs finns längre ned på sidan. Kontakta oss om någon saknas eller skriv in egen ICAO-kod.

Coded METAR: 2023/02/02 08:50 EDDW 020850Z AUTO 29009KT CAVOK 05/03 Q1019 NOSIG

Weather Report @ EDDW

Issued: 2nd Feb 2023 at 09:50 CET

Wind: gentle breeze from West-Northwest (290 degrees) at 9 knots (10 mph, 17 kph, 5 mps, Force 3)
Weather: good visibility and no low cloud (ceiling and visibility OK)
Temperature: 41F / 5C
Dewpoint: 37F / 3C
Humidity: 87%
Pressure: 1019 hPa
Weather: no significant change expected

Coded TAF: 2023/02/02 06:27 TAF EDDW 020500Z 0206/0306 28010KT 9999 SCT025 BECMG 0211/0214 22006KT BECMG 0216/0218 OVC012 TEMPO 0219/0306 4000 -RADZ BKN006 PROB30 TEMPO 0219/0223 2500 RA BKN004 BECMG 0220/0223 26013KT PROB40 TEMPO 0300/0306 27015G25KT

Weather Forecast @ EDDW

Issued: 2nd Feb 2023 at 07:27 CET

Valid : 2nd Feb 07:00 until 3rd Feb 07:00 CET

07:00 CET
Wind: gentle breeze from the West (280 degrees) at 10 knots (12 mph, 19 kph, 5 mps, Force 3)
Visibility: 10km or more
Cloud: scattered at 2500 feet

12:00 CET to 15:00 CET
becoming:

Wind: light breeze from the Southwest (220 degrees) at 6 knots (7 mph, 11 kph, 3 mps, Force 2)

17:00 CET to 19:00 CET
becoming:

Cloud: overcast at 1200 feet

20:00 CET to 07:00 CET
Occasional

Visibility: 4000 metres
Weather: light rain and drizzle
Cloud: broken at 600 feet

01:00 CET to 01:00 CET
there is a 30% chance of:


20:00 CET to 00:00 CET
Occasional

Visibility: 2500 metres
Weather: rain
Cloud: broken at 400 feet

21:00 CET to 00:00 CET
becoming:

Wind: moderate breeze from the West (260 degrees) at 13 knots (15 mph, 24 kph, 7 mps, Force 4)

01:00 CET to 01:00 CET
there is a 40% chance of:


01:00 CET to 07:00 CET
Occasional

Wind: moderate breeze from the West (270 degrees) at 15 knots (17 mph, 28 kph, 8 mps, Force 4) gusting to 25 knots (29 mph 46 kph, 13 mps)

Internet delivery of weather data is not secure or reliable enough for operational purposes.

NEVER RELY ON THE OUTPUT OF THIS SCRIPT TO MAKE DECISIONS ABOUT ANYTHING IN WHICH THE WEATHER FORECAST AND ITS INTERPRETATION COULD BE AN ISSUE OF SAFETY.

Andra intressanta METARs

Klicka på önskad rubrik nedan för att visa nuvarande väder för den platsen.

Avstånd från stationen: NO 27kmESGG - Göteborg (Landvetter)
Uppdaterad: 2023-02-02 09:50
 Vind från N
Vind: N 7 km/h
Temperatur: -5°C
Vindavkylning: -8°C
Daggpunkt: -6°C
Luftfuktighet: 93%
Barometer: 1012 hPa
Summering: Klart
Sikt: mer än 10 km
2023/02/02 08:50 ESGG 020850Z 36004KT CAVOK M05/M06 Q1012
Klart
Klart
  Visa detaljer för Göteborg (Landvetter)
Avstånd från stationen: N 28kmESGP - Göteborg (Säve)
Uppdaterad: 2023-02-02 09:50
 Vind från varierande
Vind: varierande 6 km/h
Temperatur: -3°C
Daggpunkt: -6°C
Luftfuktighet: 80%
Barometer: 1014 hPa
Summering: Klart
Sikt: mer än 10 km
2023/02/02 08:50 ESGP 020850Z VRB03KT CAVOK M03/M06 Q1014
Klart
Klart
  Visa detaljer för Göteborg (Säve)
Avstånd från stationen: NO 419kmESSA - Stockholm (Arlanda)
Uppdaterad: 2023-02-02 09:50
 Vind från NV
Vind: NV 15 km/h
Temperatur: -5°C
Vindavkylning: -11°C
Daggpunkt: -7°C
Luftfuktighet: 86%
Barometer: 1009 hPa
Moln: Övervägande molnigt
Sikt: 10 km
Molninformation: Övervägande molnigt 396 m
2023/02/02 08:50 ESSA 020850Z 31008KT 9999 BKN013 M05/M07 Q1009 TEMPO SCT011
Övervägande molnigt
Övervägande molnigt
  Visa detaljer för Stockholm (Arlanda)
Avstånd från stationen: ONO 404kmESSB - Stockholm (Bromma)
Uppdaterad: 2023-02-02 09:50
 Vind från NV
Vind: NV 15 km/h
Temperatur: -4°C
Vindavkylning: -9°C
Daggpunkt: -6°C
Luftfuktighet: 86%
Barometer: 1009 hPa
Moln: Några få moln
Sikt: 10 km
Molninformation: Några få moln 366 m
2023/02/02 08:50 ESSB 020850Z 31008KT 9999 FEW012 M04/M06 Q1009
Några få moln
Några få moln
  Visa detaljer för Stockholm (Bromma)
Avstånd från stationen: ONO 323kmESKN - Stockholm (Skavsta)
Uppdaterad: 2023-02-02 09:50
 Vind från VNV
Vind: VNV 15 km/h
Temperatur: -3°C
Vindavkylning: -8°C
Daggpunkt: -6°C
Luftfuktighet: 80%
Barometer: 1010 hPa
Moln: Övervägande molnigt
Sikt: 10 km
Molninformation: Övervägande molnigt 518 m
2023/02/02 08:50 ESKN 020850Z 30008KT 9999 BKN017 M03/M06 Q1010
Övervägande molnigt
Övervägande molnigt
  Visa detaljer för Stockholm (Skavsta)
Avstånd från stationen: SSO 238kmESMS - Malmö flygplats (Sturup)
Uppdaterad: 2023-02-02 09:50
 Vind från NV
Vind: NV 24 km/h
Temperatur: 1°C
Vindavkylning: -4°C
Daggpunkt: -2°C
Luftfuktighet: 81%
Barometer: 1012 hPa
Moln: Några få moln
Sikt: 10 km
Molninformation: Några få moln 518 m
2023/02/02 08:50 ESMS 020850Z 32013KT 9999 FEW017 01/M02 Q1012
Några få moln
Några få moln
  Visa detaljer för Malmö flygplats (Sturup)
Avstånd från stationen: O 382kmESSV - Visby flygplats
Uppdaterad: 2023-02-02 09:50
 Vind från N
Vind: N 28 km/h
Temperatur: 0°C
Vindavkylning: -6°C
Daggpunkt: -2°C
Luftfuktighet: 87%
Barometer: 1007 hPa
Moln: Övervägande molnigt
Sikt: 10 km
Molninformation: Övervägande molnigt 366 m
2023/02/02 08:50 ESSV 020850Z 35015KT 9999 BKN012 00/M02 Q1007
Övervägande molnigt
Övervägande molnigt
  Visa detaljer för Visby flygplats
Avstånd från stationen: NNO 92kmESGT - Trollhättan
Uppdaterad: 2023-02-02 09:50
 Vind från NV
Vind: NV 7 km/h
Temperatur: -5°C
Vindavkylning: -8°C
Daggpunkt: -7°C
Luftfuktighet: 86%
Barometer: 1014 hPa
Summering: Klart
Sikt: mer än 10 km
2023/02/02 08:50 ESGT 020850Z 32004KT CAVOK M05/M07 Q1014
Klart
Klart
  Visa detaljer för Trollhättan
Avstånd från stationen: ONO 129kmESGJ - Jönköpings flygplats
Uppdaterad: 2023-02-02 09:50
 Vind från NV
Vind: NV 13 km/h
Temperatur: -3°C
Vindavkylning: -7°C
Daggpunkt: -4°C
Luftfuktighet: 93%
Barometer: 1011 hPa
Moln: Några få moln
Sikt: 10 km
Molninformation: Några få moln 335 m
2023/02/02 08:50 ESGJ 020850Z 32007KT 290V350 9999 FEW011 M03/M04 Q1011
Några få moln
Några få moln
  Visa detaljer för Jönköpings flygplats
Avstånd från stationen: NNO 229kmESOK - Karlstad
Uppdaterad: 2023-02-02 09:50
 Vind från NV
Vind: NV 13 km/h
Temperatur: -7°C
Vindavkylning: -13°C
Daggpunkt: -10°C
Luftfuktighet: 79%
Barometer: 1012 hPa
Summering: Klart
Sikt: mer än 10 km
2023/02/02 08:50 ESOK 020850Z 32007KT CAVOK M07/M10 Q1012
Klart
Klart
  Visa detaljer för Karlstad
Avstånd från stationen: N 643kmESNZ - Östersund (Frösön)
Uppdaterad: 2023-02-02 09:50
 Vind från calm
Vind: Vindstilla
Temperatur: -12°C
Daggpunkt: -13°C
Luftfuktighet: 92%
Barometer: 1009 hPa
Moln: Övervägande molnigt
Sikt: 10 km
Molninformation: Delvis molnigt 610 m
Övervägande molnigt 792 m
2023/02/02 08:50 ESNZ 020850Z 00000KT 9999 SCT020 BKN026 M12/M13 Q1009
Övervägande molnigt
Övervägande molnigt
  Visa detaljer för Östersund (Frösön)
Avstånd från stationen: SSO 216kmEKCH - Köpenhamn (Kastrup)
Uppdaterad: 2023-02-02 09:50
 Vind från NV
Vind: NV 17 km/h
Temperatur: 2°C
Vindavkylning: -2°C
Daggpunkt: -3°C
Luftfuktighet: 70%
Barometer: 1014 hPa
Moln: Klart
Sikt: 10 km
2023/02/02 08:50 EKCH 020850Z AUTO 32009KT 9999 NCD 02/M03 Q1014 NOSIG
Klart
Klart
  Visa detaljer för Köpenhamn (Kastrup)
Avstånd från stationen: SV 263kmEKBI - Billund Airport
Uppdaterad: 2023-02-02 09:50
 Vind från VSV
Vind: VSV 2 km/h
Temperatur: 0°C
Daggpunkt: -1°C
Luftfuktighet: 93%
Barometer: 1016 hPa
Moln: Klart
Sikt: 10 km
2023/02/02 08:50 EKBI 020850Z AUTO 24001KT 9999 NCD M00/M01 Q1016
Klart
Klart
  Visa detaljer för Billund Airport
Avstånd från stationen: N 302kmENGM - Oslo (Gardermoen)
Uppdaterad: 2023-02-02 09:50
 Vind från N
Vind: N 7 km/h
Temperatur: -12°C
Vindavkylning: -17°C
Daggpunkt: -14°C
Luftfuktighet: 85%
Barometer: 1013 hPa
Summering: Klart
Sikt: mer än 10 km
2023/02/02 08:50 ENGM 020850Z 01004KT CAVOK M12/M14 Q1013 NOSIG
Klart
Klart
  Visa detaljer för Oslo (Gardermoen)
Avstånd från stationen: NO 540kmEFMA - Mariehamn / Åland
Uppdaterad: 2023-02-02 09:50
 Vind från NNV
Vind: NNV 9 km/h
Temperatur: 0°C
Vindavkylning: -3°C
Daggpunkt: -2°C
Luftfuktighet: 87%
Barometer: 1007 hPa
Moln: Övervägande molnigt
Sikt: 10 km
Molninformation: Några få moln 579 m
Övervägande molnigt 1250 m
2023/02/02 08:50 EFMA 020850Z 34005KT 320V020 9999 FEW019 BKN041 M00/M02 Q1007
Övervägande molnigt
Övervägande molnigt
  Visa detaljer för Mariehamn / Åland
Avstånd från stationen: S 558kmEDDT - Berlin (Tegel), Germany
Uppdaterad: 2020-11-09 07:50
Ej aktuell
 Vind från O
Vind: O 11 km/h
Temperatur: 6°C
Vindavkylning: 4°C
Daggpunkt: 5°C
Luftfuktighet: 93%
Barometer: 1027 hPa
Summering: Dimmigt
Moln: Genommulet
Sikt: 3 km
Molninformation: Genommulet 91 m
2020/11/09 06:50 EDDT 090650Z 09006KT 050V120 3000 BR OVC003 06/05 Q1027
Dimmigt, Genommulet
Dimmigt
Genommulet
  Visa detaljer för Berlin (Tegel), Germany
Avstånd från stationen: SV 737kmEHAM - Amsterdam (Schiphol)
Uppdaterad: 2023-02-02 09:55
 Vind från V
Vind: V 28 km/h
Temperatur: 8°C
Vindavkylning: 4°C
Daggpunkt: 6°C
Luftfuktighet: 87%
Barometer: 1022 hPa
Summering: Lätt regn, Duggregn
Moln: Övervägande molnigt
Sikt: 10 km
Molninformation: Några få moln 488 m
Övervägande molnigt 1402 m
2023/02/02 08:55 EHAM 020855Z 27015KT 250V310 9999 -RADZ FEW016 BKN046 08/06 Q1022 TEMPO 7000
Lätt regn, Duggregn, Övervägande molnigt
Lätt regn
Duggregn
Övervägande molnigt
  Visa detaljer för Amsterdam (Schiphol)
Avstånd från stationen: ONO 808kmEFHK - Helsingfors (Vantaa)
Uppdaterad: 2023-02-02 09:50
 Vind från NNV
Vind: NNV 13 km/h
Temperatur: -2°C
Vindavkylning: -7°C
Daggpunkt: -3°C
Luftfuktighet: 93%
Barometer: 1003 hPa
Moln: Några få moln
Sikt: 10 km
Molninformation: Några få moln 152 m
2023/02/02 08:50 EFHK 020850Z 34007KT 9999 FEW005 M02/M03 Q1003 TEMPO BKN004
Några få moln
Några få moln
  Visa detaljer för Helsingfors (Vantaa)
Avstånd från stationen: SSV 537kmEDDW - Bremen
Uppdaterad: 2023-02-02 09:50
 Vind från VNV
Vind: VNV 17 km/h
Temperatur: 5°C
Vindavkylning: 2°C
Daggpunkt: 3°C
Luftfuktighet: 87%
Barometer: 1019 hPa
Summering: Klart
Sikt: mer än 10 km
2023/02/02 08:50 EDDW 020850Z AUTO 29009KT CAVOK 05/03 Q1019 NOSIG
Klart
Klart
  Visa detaljer för Bremen
Avstånd från stationen: SSV 861kmEDDF - Frankfurt am Main
Uppdaterad: 2023-02-02 09:50
 Vind från VSV
Vind: VSV 24 km/h
Temperatur: 8°C
Vindavkylning: 4°C
Daggpunkt: 4°C
Luftfuktighet: 76%
Barometer: 1023 hPa
Moln: Övervägande molnigt
Sikt: 10 km
Molninformation: Övervägande molnigt 823 m
Övervägande molnigt 1067 m
2023/02/02 08:50 EDDF 020850Z AUTO 24013KT 9999 BKN027 BKN035 08/04 Q1023 TEMPO 24015G25KT
Övervägande molnigt
Övervägande molnigt
  Visa detaljer för Frankfurt am Main
Avstånd från stationen: SV 880kmEBBR - Bryssel international
Uppdaterad: 2023-02-02 09:50
 Vind från V
Vind: V 24 km/h
Temperatur: 8°C
Vindavkylning: 4°C
Daggpunkt: 4°C
Luftfuktighet: 76%
Barometer: 1025 hPa
Moln: Övervägande molnigt
Sikt: 10 km
Molninformation: Några få moln 853 m
Övervägande molnigt 1158 m
2023/02/02 08:50 EBBR 020850Z 26013KT 9999 FEW028 BKN038 08/04 Q1025 NOSIG
Övervägande molnigt
Övervägande molnigt
  Visa detaljer för Bryssel international
Avstånd från stationen: SV 738kmEHAM - Amsterdam (Schiphol)
Uppdaterad: 2023-02-02 09:55
 Vind från V
Vind: V 28 km/h
Temperatur: 8°C
Vindavkylning: 4°C
Daggpunkt: 6°C
Luftfuktighet: 87%
Barometer: 1022 hPa
Summering: Lätt regn, Duggregn
Moln: Övervägande molnigt
Sikt: 10 km
Molninformation: Några få moln 488 m
Övervägande molnigt 1402 m
2023/02/02 08:55 EHAM 020855Z 27015KT 250V310 9999 -RADZ FEW016 BKN046 08/06 Q1022 TEMPO 7000
Lätt regn, Duggregn, Övervägande molnigt
Lätt regn
Duggregn
Övervägande molnigt
  Visa detaljer för Amsterdam (Schiphol)
Avstånd från stationen: SV 1044kmEGLL - London (Heathrow)
Uppdaterad: 2023-02-02 09:50
 Vind från V
Vind: V 17 km/h
Temperatur: 8°C
Vindavkylning: 5°C
Daggpunkt: 6°C
Luftfuktighet: 87%
Barometer: 1027 hPa
Moln: Genommulet
Sikt: 10 km
Molninformation: Genommulet 427 m
2023/02/02 08:50 EGLL 020850Z AUTO 27009KT 9999 OVC014 08/06 Q1027 BECMG BKN015
Genommulet
Genommulet
  Visa detaljer för London (Heathrow)
Avstånd från stationen: SV 1132kmLFPG - Paris (Charles de Gaulle)
Uppdaterad: 2023-02-02 10:00
 Vind från VSV
Vind: VSV 19 km/h
Vindby: 41 km/h
Temperatur: 7°C
Vindavkylning: 4°C
Daggpunkt: 4°C
Luftfuktighet: 81%
Barometer: 1031 hPa
Moln: Genommulet
Sikt: 10 km
Molninformation: Några få moln 701 m
Genommulet 975 m
2023/02/02 09:00 LFPG 020900Z 24010G22KT 220V290 9999 FEW023 OVC032 07/04 Q1031 NOSIG
Genommulet
Genommulet
  Visa detaljer för Paris (Charles de Gaulle)
Avstånd från stationen: SSV 1142kmLSZH - Zürich Airport
Uppdaterad: 2023-02-02 09:50
 Vind från V
Vind: V 13 km/h
Temperatur: 4°C
Vindavkylning: 1°C
Daggpunkt: 0°C
Luftfuktighet: 75%
Barometer: 1029 hPa
Moln: Övervägande molnigt
Sikt: 10 km
Molninformation: Några få moln 914 m
Övervägande molnigt 1676 m
2023/02/02 08:50 LSZH 020850Z 26007KT 220V290 9999 FEW030 BKN055 04/M00 Q1029 NOSIG
Övervägande molnigt
Övervägande molnigt
  Visa detaljer för Zürich Airport
Avstånd från stationen: S 1749kmLIRF - Rome Airport (Fiumicino - Leonardo da Vinci)
Uppdaterad: 2023-02-02 09:50
 Vind från ONO
Vind: ONO 9 km/h
Temperatur: 8°C
Vindavkylning: 6°C
Daggpunkt: 5°C
Luftfuktighet: 82%
Barometer: 1024 hPa
Moln: Några få moln
Sikt: 10 km
Molninformation: Några få moln 1219 m
2023/02/02 08:50 LIRF 020850Z 07005KT 9999 FEW040 08/05 Q1024 NOSIG
Några få moln
Några få moln
  Visa detaljer för Rome Airport (Fiumicino - Leonardo da Vinci)
Avstånd från stationen: SO 2679kmLTAI - Antalya
Uppdaterad: 2023-02-02 09:50
 Vind från NV
Vind: NV 28 km/h
Temperatur: 11°C
Daggpunkt: -8°C
Luftfuktighet: 26%
Barometer: 1020 hPa
Summering: Klart
Sikt: mer än 10 km
2023/02/02 08:50 LTAI 020850Z 31015KT CAVOK 11/M08 Q1020 NOSIG
Klart
Klart
  Visa detaljer för Antalya
Avstånd från stationen: VSV 6074kmKJFK - New Your (JFK)
Uppdaterad: 2023-02-02 09:51
 Vind från NNO
Vind: NNO 9 km/h
Temperatur: -3°C
Vindavkylning: -7°C
Daggpunkt: -10°C
Luftfuktighet: 59%
Barometer: 1025.1 hPa
Moln: Övervägande molnigt
Sikt: 16 km
Molninformation: Övervägande molnigt 7620 m
2023/02/02 08:51 KJFK 020851Z 02005KT 10SM BKN250 M03/M10 A3027 RMK AO2 SLP249 T10331100 56010
Övervägande molnigt
Övervägande molnigt
  Visa detaljer för New Your (JFK)
Avstånd från stationen: VSV 8848kmKLAX - Los Angeles International Airport
Uppdaterad: 2023-02-02 09:53
 Vind från O
Vind: O 7 km/h
Temperatur: 8°C
Vindavkylning: 7°C
Daggpunkt: 2°C
Luftfuktighet: 66%
Barometer: 1023.7 hPa
Moln: Klart
Sikt: 16 km
2023/02/02 08:53 KLAX 020853Z 08004KT 10SM CLR 08/02 A3023 RMK AO2 SLP234 T00830017 51005 $
Klart
Klart
  Visa detaljer för Los Angeles International Airport
Avstånd från stationen: SO 4968kmOMDB - Dubai International Airport
Uppdaterad: 2023-02-02 10:00
 Vind från SSO
Vind: SSO 13 km/h
Temperatur: 26°C
Daggpunkt: 14°C
Luftfuktighet: 48%
Barometer: 1015 hPa
Moln: Några få moln
Sikt: 10 km
Molninformation: Några få moln 1219 m
2023/02/02 09:00 OMDB 020900Z 16007KT 100V210 9999 FEW040 26/14 Q1015 NOSIG
Några få moln
Några få moln
  Visa detaljer för Dubai International Airport
Avstånd från stationen: OSO 8570kmRJTT - Tokyo International Airport
Uppdaterad: 2023-02-02 10:00
 Vind från NNV
Vind: NNV 20 km/h
Moln: Övervägande molnigt
Sikt: 10 km
Molninformation: Övervägande molnigt 1829 m
2023/02/02 09:00 RJTT 020900Z 34011KT 9999 BKN060 BKN/// 07/M10 Q1018 NOSIG
Övervägande molnigt
Övervägande molnigt
  Visa detaljer för Tokyo International Airport
Avstånd från stationen: OSO 7125kmZBAA - Peking (Beijing Capital)
Uppdaterad: 2023-02-02 10:00
 Vind från SO
Vind: SO 7 km/h
Temperatur: 0°C
Vindavkylning: -2°C
Daggpunkt: -22°C
Luftfuktighet: 17%
Barometer: 1029 hPa
Summering: Klart
Sikt: mer än 10 km
2023/02/02 09:00 ZBAA 020900Z 13002MPS 100V160 CAVOK 00/M22 Q1029 NOSIG
Klart
Klart
  Visa detaljer för Peking (Beijing Capital)
VÄDER KURIOSA -  Dew PointThe dew point is the temperature to which air must be cooled, at constant barometric pressure, for water vapor to condense into water. The condensed water is called dew. When the dew point temperature falls below freezing it is called the frost point, as the water no longer creates dew but instead creates frost. The dew point is associated with relative humidity. A high relative humidity indicates that the dew point is closer to the current air temperature. If the relative humidity is 100%, the dew point is equal to the current temperature. Given a constant dew point, an increase in temperature will lead to a decrease in relative humidity.